Time;durP1;ratioP1;P1;durP2;ratioP2;P2;SDS_P1;SDS_P2;PMS_P1;PMS_P2;Temp;Humidity;BMP_temperature;BMP_pressure;BME280_temperature;BME280_humidity;BME280_pressure;Samples;Min_cycle;Max_cycle;Signal;HPM_P1;HPM_P2
2022/06/25 00:01:29;;;;;;;2.47;1.80;;;;;;;22.72;58.63;101039.97;1710562;83;21013;-52
2022/06/25 00:03:57;;;;;;;1.65;1.55;;;;;;;22.72;58.74;101043.09;1711151;83;21502;-50
2022/06/25 00:06:24;;;;;;;1.72;1.62;;;;;;;22.71;58.79;101040.08;1712380;83;21033;-51
2022/06/25 00:08:51;;;;;;;1.65;1.55;;;;;;;22.71;58.89;101044.06;1714232;83;20993;-50
2022/06/25 00:14:06;;;;;;;2.10;1.60;;;;;;;22.71;58.99;101043.56;1710160;83;21021;-50
2022/06/25 00:16:34;;;;;;;2.75;1.80;;;;;;;22.72;58.96;101035.13;1711850;83;20992;-52
2022/06/25 00:19:01;;;;;;;2.95;1.80;;;;;;;22.72;58.86;101032.48;1714831;83;21022;-50
2022/06/25 00:21:28;;;;;;;2.05;1.85;;;;;;;22.73;58.86;101042.16;1713951;83;20966;-51
2022/06/25 00:23:55;;;;;;;2.02;1.80;;;;;;;22.74;58.89;101050.47;1711730;83;21069;-52
2022/06/25 00:26:22;;;;;;;2.35;1.82;;;;;;;22.73;58.85;101042.98;1710953;83;21042;-52
2022/06/25 00:28:49;;;;;;;1.57;1.47;;;;;;;22.72;58.91;101051.91;1711182;83;21026;-51
2022/06/25 00:31:16;;;;;;;1.90;1.67;;;;;;;22.73;58.87;101056.74;1711163;83;21022;-55
2022/06/25 00:33:43;;;;;;;3.02;1.67;;;;;;;22.73;58.64;101060.72;1711075;83;21029;-51
2022/06/25 00:36:10;;;;;;;2.08;1.87;;;;;;;22.70;58.61;101060.91;1707692;83;21022;-50
2022/06/25 00:38:37;;;;;;;2.12;2.02;;;;;;;22.69;58.63;101061.88;1714064;83;21038;-51
2022/06/25 00:41:04;;;;;;;2.02;1.92;;;;;;;22.68;58.62;101053.53;1712450;83;21018;-51
2022/06/25 00:43:32;;;;;;;1.70;1.60;;;;;;;22.70;58.59;101052.95;1712389;83;21025;-54
2022/06/25 00:45:58;;;;;;;1.75;1.65;;;;;;;22.70;58.70;101056.94;1713093;83;21014;-52
2022/06/25 00:48:25;;;;;;;2.40;1.75;;;;;;;22.71;58.69;101053.34;1710728;82;21021;-50
2022/06/25 00:50:53;;;;;;;1.90;1.80;;;;;;;22.72;58.61;101051.05;1711371;83;21501;-50
2022/06/25 00:53:19;;;;;;;2.37;1.90;;;;;;;22.72;58.56;101045.27;1710765;83;20990;-51
2022/06/25 00:55:48;;;;;;;1.80;1.70;;;;;;;22.74;58.62;101038.53;1707928;83;21583;-53
2022/06/25 00:58:14;;;;;;;1.98;1.80;;;;;;;22.77;58.60;101039.20;1706080;83;21100;-51
2022/06/25 01:00:42;;;;;;;1.95;1.85;;;;;;;22.79;58.47;101035.96;1708786;83;21018;-50
2022/06/25 01:03:09;;;;;;;2.75;1.60;;;;;;;22.80;58.36;101038.11;1744400;81;21034;-51
2022/06/25 01:05:36;;;;;;;1.75;1.65;;;;;;;22.79;58.23;101037.29;1665900;85;21059;-49
2022/06/25 01:08:03;;;;;;;1.57;1.47;;;;;;;22.81;58.12;101043.81;1655555;85;21058;-53
2022/06/25 01:10:30;;;;;;;2.47;1.60;;;;;;;22.81;58.13;101043.81;1666389;85;21084;-55
2022/06/25 01:12:57;;;;;;;1.55;1.45;;;;;;;22.82;58.00;101037.53;1667165;85;21039;-50
2022/06/25 01:15:25;;;;;;;2.65;1.47;;;;;;;22.81;57.97;101036.70;1658790;85;21126;-50
2022/06/25 01:17:53;;;;;;;1.65;1.40;;;;;;;22.80;57.92;101032.80;1650500;85;21062;-52
2022/06/25 01:22:51;;;;;;;3.08;1.62;;;;;;;22.78;58.09;101035.57;1590040;90;21106;-50
2022/06/25 01:25:18;;;;;;;1.85;1.47;;;;;;;22.78;58.09;101030.73;1572688;90;21044;-51
2022/06/25 01:27:46;;;;;;;2.27;1.42;;;;;;;22.79;58.10;101042.59;1629926;87;21065;-51
2022/06/25 01:30:14;;;;;;;1.50;1.40;;;;;;;22.79;57.98;101040.41;1630175;87;21578;-52
2022/06/25 01:32:42;;;;;;;1.50;1.40;;;;;;;22.78;58.04;101044.00;1630064;87;21062;-49
2022/06/25 01:35:09;;;;;;;1.67;1.57;;;;;;;22.78;58.16;101047.98;1630307;88;21049;-52
2022/06/25 01:37:37;;;;;;;1.60;1.50;;;;;;;22.78;58.28;101044.00;1658414;85;21520;-51
2022/06/25 01:40:07;;;;;;;4.72;1.90;;;;;;;22.80;58.25;101046.07;1645339;84;21053;-52
2022/06/25 01:45:19;;;;;;;1.45;1.30;;;;;;;22.80;58.41;101042.95;1652806;84;21061;-51
2022/06/25 01:47:46;;;;;;;2.40;1.40;;;;;;;22.80;58.37;101044.75;1668105;84;21031;-50
2022/06/25 01:50:14;;;;;;;1.80;1.70;;;;;;;22.81;58.23;101042.02;1588447;88;21590;-52
2022/06/25 01:52:43;;;;;;;2.52;1.60;;;;;;;22.80;58.20;101038.11;1650565;84;21058;-52
2022/06/25 01:55:10;;;;;;;1.82;1.67;;;;;;;22.77;58.28;101043.17;1592406;87;21093;-52
2022/06/25 01:57:40;;;;;;;5.33;1.70;;;;;;;22.76;58.30;101041.93;1660792;84;21133;-56
2022/06/25 02:00:10;;;;;;;1.82;1.30;;;;;;;22.73;58.17;101043.48;1658822;85;21121;-50
2022/06/25 02:02:45;;;;;;;2.65;1.45;;;;;;;22.75;58.22;101048.20;1609227;89;21069;-50
2022/06/25 02:05:13;;;;;;;1.82;1.62;;;;;;;22.76;58.14;101047.23;1665467;85;21129;-53
2022/06/25 02:07:40;;;;;;;1.80;1.70;;;;;;;22.75;58.21;101046.87;1654385;84;21017;-55
2022/06/25 02:10:08;;;;;;;1.70;1.57;;;;;;;22.75;58.23;101050.86;1677071;84;21577;-51
2022/06/25 02:12:35;;;;;;;2.50;1.60;;;;;;;22.71;58.26;101056.82;1657543;84;21119;-49
2022/06/25 02:15:05;;;;;;;2.08;1.60;;;;;;;22.71;58.25;101061.30;1599460;89;21045;-50
2022/06/25 02:17:32;;;;;;;2.12;1.65;;;;;;;22.68;58.35;101058.38;1670456;84;21548;-53
2022/06/25 02:20:00;;;;;;;2.08;1.65;;;;;;;22.68;58.44;101061.49;1708937;80;21097;-53
2022/06/25 02:22:26;;;;;;;1.70;1.60;;;;;;;22.64;58.35;101060.39;1747531;80;21700;-50
2022/06/25 02:24:54;;;;;;;1.62;1.52;;;;;;;22.63;58.39;101063.98;1714027;83;21057;-51
2022/06/25 02:27:21;;;;;;;1.80;1.70;;;;;;;22.60;58.35;101066.85;1713889;83;21026;-49
2022/06/25 02:29:48;;;;;;;2.98;1.45;;;;;;;22.58;58.48;101071.41;1711865;83;22099;-51
2022/06/25 02:32:15;;;;;;;1.60;1.50;;;;;;;22.59;58.59;101073.56;1712530;83;21536;-50
2022/06/25 02:34:43;;;;;;;1.70;1.60;;;;;;;22.60;58.72;101072.16;1713193;83;21076;-51
2022/06/25 02:37:09;;;;;;;1.98;1.52;;;;;;;22.62;58.74;101076.02;1713966;83;21021;-51
2022/06/25 02:39:37;;;;;;;1.80;1.70;;;;;;;22.63;58.55;101077.24;1713828;83;21072;-50
2022/06/25 02:42:05;;;;;;;2.62;1.50;;;;;;;22.64;58.53;101081.61;1705338;83;20989;-52
2022/06/25 02:44:33;;;;;;;1.80;1.70;;;;;;;22.67;58.54;101079.70;1711241;83;21049;-51
2022/06/25 02:47:01;;;;;;;2.10;1.80;;;;;;;22.71;58.42;101085.18;1708342;83;21489;-50
2022/06/25 02:49:30;;;;;;;2.75;1.90;;;;;;;22.74;58.11;101091.59;1712931;83;21085;-52
2022/06/25 02:51:57;;;;;;;3.02;1.90;;;;;;;22.74;57.93;101087.14;1683750;83;21454;-49
2022/06/25 02:54:24;;;;;;;1.90;1.80;;;;;;;22.74;57.88;101082.30;1715558;83;20982;-50
2022/06/25 02:59:42;;;;;;;1.80;1.65;;;;;;;22.78;57.58;101098.39;1710418;83;21026;-50
2022/06/25 03:02:09;;;;;;;1.47;1.37;;;;;;;22.78;57.59;101094.41;1707668;83;21471;-50
2022/06/25 03:04:37;;;;;;;3.35;1.70;;;;;;;22.77;57.56;101086.09;1705594;83;21085;-49
2022/06/25 03:07:06;;;;;;;2.25;1.47;;;;;;;22.76;57.54;101089.69;1705769;83;20994;-49
2022/06/25 03:09:34;;;;;;;1.80;1.70;;;;;;;22.74;57.75;101083.63;1705424;83;21526;-50
2022/06/25 03:12:02;;;;;;;1.90;1.80;;;;;;;22.73;57.85;101085.42;1720679;82;21030;-56
2022/06/25 03:14:30;;;;;;;2.08;1.45;;;;;;;22.72;57.85;101084.20;1712532;83;21034;-51
2022/06/25 03:16:57;;;;;;;1.77;1.67;;;;;;;22.71;57.83;101085.18;1703895;83;21046;-49
2022/06/25 03:19:26;;;;;;;1.70;1.60;;;;;;;22.70;57.92;101080.34;1743660;82;20999;-51
2022/06/25 03:21:57;;;;;;;3.80;1.80;;;;;;;22.71;57.96;101086.50;1677307;85;21568;-48
2022/06/25 03:24:24;;;;;;;1.77;1.67;;;;;;;22.73;57.98;101089.91;1675204;85;21068;-50
2022/06/25 03:26:51;;;;;;;2.67;2.12;;;;;;;22.75;57.96;101088.83;1659433;85;21543;-49
2022/06/25 03:29:18;;;;;;;1.60;1.50;;;;;;;22.79;57.92;101085.05;1659580;85;21156;-50
2022/06/25 03:31:45;;;;;;;2.33;1.92;;;;;;;22.83;57.78;101093.64;1659241;86;21088;-50
2022/06/25 03:34:23;;;;;;;1.70;1.57;;;;;;;22.83;57.78;101094.97;1582691;90;21124;-51
2022/06/25 03:36:52;;;;;;;2.00;1.90;;;;;;;22.86;57.75;101098.25;1604849;88;21537;-53
2022/06/25 03:39:18;;;;;;;1.82;1.72;;;;;;;22.90;57.69;101101.08;1582749;90;21056;-52
2022/06/25 03:41:46;;;;;;;2.87;2.12;;;;;;;22.93;57.48;101104.01;1604795;88;21065;-51
2022/06/25 03:44:15;;;;;;;1.80;1.70;;;;;;;22.93;57.42;101115.95;1581673;89;21613;-51
2022/06/25 03:46:43;;;;;;;1.70;1.52;;;;;;;22.93;57.43;101123.91;1587640;89;21080;-53
2022/06/25 03:49:10;;;;;;;2.02;1.90;;;;;;;22.91;57.41;101121.37;1581330;90;21096;-55
2022/06/25 03:51:39;;;;;;;2.70;2.10;;;;;;;22.89;57.50;101125.06;1541531;92;21093;-51
2022/06/25 03:54:06;;;;;;;1.98;1.87;;;;;;;22.88;57.42;101127.33;1538652;93;21640;-50
2022/06/25 03:56:33;;;;;;;2.98;1.98;;;;;;;22.93;57.69;101132.73;1538306;92;21125;-51
2022/06/25 03:59:02;;;;;;;2.47;2.08;;;;;;;23.09;57.21;101134.72;1550522;92;21562;-50
2022/06/25 04:01:29;;;;;;;1.92;1.82;;;;;;;23.24;56.46;101142.98;1558065;92;21110;-49
2022/06/25 04:03:58;;;;;;;1.98;1.87;;;;;;;23.27;55.97;101141.91;1558193;92;21150;-48
2022/06/25 04:06:26;;;;;;;2.10;2.00;;;;;;;23.24;55.74;101140.33;1538598;92;21062;-50
2022/06/25 04:08:58;;;;;;;2.20;2.00;;;;;;;23.22;55.74;101141.38;1521525;93;21096;-50
2022/06/25 04:11:24;;;;;;;2.15;2.00;;;;;;;23.19;55.90;101138.92;1535820;93;21625;-51
2022/06/25 04:13:55;;;;;;;4.65;1.95;;;;;;;23.15;56.01;101146.25;1560828;92;21141;-51
2022/06/25 04:16:23;;;;;;;3.83;2.30;;;;;;;23.13;56.11;101141.99;1560293;92;21113;-53
2022/06/25 04:18:50;;;;;;;2.95;2.10;;;;;;;23.09;56.00;101143.16;1560335;91;21122;-52
2022/06/25 04:21:19;;;;;;;2.37;2.20;;;;;;;23.05;56.03;101139.01;1568638;90;21085;-51
2022/06/25 04:23:45;;;;;;;2.72;2.50;;;;;;;23.03;56.21;101144.89;1584647;90;21064;-50
2022/06/25 04:26:14;;;;;;;2.22;2.02;;;;;;;23.00;56.39;101142.47;1584613;90;21457;-51
2022/06/25 04:31:36;;;;;;;2.52;2.30;;;;;;;22.99;56.33;101147.38;1595703;88;21072;-51
2022/06/25 04:34:03;;;;;;;2.92;2.72;;;;;;;22.99;56.37;101152.69;1595855;88;21017;-51
2022/06/25 04:36:31;;;;;;;2.52;2.33;;;;;;;23.02;56.42;101155.16;1595744;88;21652;-53
2022/06/25 04:38:59;;;;;;;2.47;2.27;;;;;;;23.03;56.43;101151.53;1559259;91;21081;-52
2022/06/25 04:41:26;;;;;;;2.65;2.45;;;;;;;23.04;56.38;101155.91;1558816;91;21081;-53
2022/06/25 04:43:55;;;;;;;2.50;2.30;;;;;;;23.02;56.39;101160.47;1558962;91;21588;-51
2022/06/25 04:46:23;;;;;;;2.90;2.50;;;;;;;23.03;56.60;101159.49;1559055;91;21569;-51
2022/06/25 04:48:53;;;;;;;2.95;2.62;;;;;;;23.05;56.48;101165.55;1558895;91;21129;-51
2022/06/25 04:51:28;;;;;;;5.40;3.02;;;;;;;23.07;56.59;101166.30;1559022;92;21136;-53
2022/06/25 04:53:57;;;;;;;3.58;2.90;;;;;;;23.08;56.84;101168.02;1559036;91;21077;-50
2022/06/25 04:56:29;;;;;;;2.65;2.45;;;;;;;23.13;56.93;101164.55;1515482;95;21125;-51
2022/06/25 04:58:57;;;;;;;3.10;2.90;;;;;;;23.21;57.07;101166.22;1544136;93;21110;-52
2022/06/25 05:01:32;;;;;;;3.67;2.87;;;;;;;23.30;56.96;101170.92;1532892;92;21111;-52
2022/06/25 05:03:59;;;;;;;4.50;2.60;;;;;;;23.41;56.74;101171.08;1492861;95;21522;-51
2022/06/25 05:06:26;;;;;;;2.60;2.40;;;;;;;23.51;56.44;101168.16;1574906;89;21147;-54
2022/06/25 05:08:53;;;;;;;3.30;3.00;;;;;;;23.65;56.19;101172.05;1587125;90;21041;-51
2022/06/25 05:11:20;;;;;;;2.80;2.60;;;;;;;23.81;55.86;101175.33;1581409;90;21041;-51
2022/06/25 05:13:49;;;;;;;3.35;2.70;;;;;;;23.97;55.63;101170.62;1583169;89;21089;-49
2022/06/25 05:16:17;;;;;;;3.17;2.80;;;;;;;24.16;55.11;101167.55;1583769;90;21057;-52
2022/06/25 05:18:44;;;;;;;2.83;2.62;;;;;;;24.34;54.65;101178.69;1583510;90;21078;-51
2022/06/25 05:21:11;;;;;;;2.83;2.62;;;;;;;24.44;54.21;101172.56;1582645;89;21063;-51
2022/06/25 05:23:38;;;;;;;3.20;2.92;;;;;;;24.51;53.70;101178.30;1580929;90;21105;-51
2022/06/25 05:26:05;;;;;;;3.15;2.58;;;;;;;24.55;53.27;101173.98;1581455;90;21448;-49
2022/06/25 05:28:33;;;;;;;3.10;2.80;;;;;;;24.56;53.17;101180.16;1580669;90;21096;-51
2022/06/25 05:31:00;;;;;;;2.70;2.50;;;;;;;24.59;52.93;101191.89;1581204;90;21566;-50
2022/06/25 05:33:27;;;;;;;3.20;2.80;;;;;;;24.59;52.81;101193.22;1609633;85;21050;-51
2022/06/25 05:35:54;;;;;;;3.40;3.10;;;;;;;24.62;52.79;101200.99;1711419;80;21601;-51
2022/06/25 05:38:21;;;;;;;2.75;2.55;;;;;;;24.65;52.82;101201.61;1714769;83;21037;-52
2022/06/25 05:40:49;;;;;;;2.95;2.70;;;;;;;24.68;53.02;101203.20;1714063;83;21521;-48
2022/06/25 05:43:16;;;;;;;3.02;2.72;;;;;;;24.75;52.80;101203.17;1715514;83;21064;-54
2022/06/25 05:45:43;;;;;;;3.02;2.72;;;;;;;24.80;52.83;101195.68;1716319;83;20990;-51
2022/06/25 05:48:10;;;;;;;3.17;2.87;;;;;;;24.83;52.67;101195.47;1715977;83;21037;-51
2022/06/25 05:50:37;;;;;;;3.10;2.90;;;;;;;24.82;52.76;101186.63;1713399;83;21041;-49
2022/06/25 05:53:03;;;;;;;3.62;3.20;;;;;;;24.86;52.75;101189.90;1712971;83;20998;-51
2022/06/25 05:55:31;;;;;;;3.33;3.02;;;;;;;24.89;52.35;101195.02;1713422;83;21081;-52
2022/06/25 05:57:58;;;;;;;4.40;3.10;;;;;;;24.89;52.02;101193.68;1698237;84;21025;-51
2022/06/25 06:00:26;;;;;;;3.20;2.90;;;;;;;24.85;51.98;101188.22;1698664;82;21026;-49
2022/06/25 06:02:53;;;;;;;3.45;2.70;;;;;;;24.82;52.03;101193.75;1736780;81;21027;-50
2022/06/25 06:05:20;;;;;;;4.00;3.30;;;;;;;24.80;51.99;101204.99;1701139;84;21002;-52
2022/06/25 06:07:47;;;;;;;3.27;2.98;;;;;;;24.70;52.23;101207.93;1699518;84;21050;-50
2022/06/25 06:10:14;;;;;;;3.60;3.30;;;;;;;24.70;52.23;101207.93;1698284;84;21030;-51
2022/06/25 06:12:41;;;;;;;2.90;2.70;;;;;;;24.65;52.53;101207.41;1735210;81;21502;-51
2022/06/25 06:15:10;;;;;;;2.95;2.75;;;;;;;24.64;52.63;101207.05;1733491;81;21473;-52
2022/06/25 06:17:38;;;;;;;2.87;2.67;;;;;;;24.60;52.88;101202.45;1724496;81;21062;-51
2022/06/25 06:20:07;;;;;;;3.58;3.02;;;;;;;24.61;53.12;101211.25;1733692;81;21015;-50
2022/06/25 06:22:35;;;;;;;3.12;2.92;;;;;;;24.66;53.34;101209.13;1723451;81;21583;-52
2022/06/25 06:25:03;;;;;;;2.60;2.40;;;;;;;24.73;53.15;101202.40;1736541;81;21074;-51
2022/06/25 06:27:30;;;;;;;2.90;2.70;;;;;;;24.79;52.50;101207.30;1699069;84;21675;-50
2022/06/25 06:29:57;;;;;;;4.83;2.87;;;;;;;24.81;51.97;101198.72;1699640;84;21065;-51
2022/06/25 06:32:24;;;;;;;3.27;3.00;;;;;;;24.82;52.06;101197.27;1700222;84;20959;-52
2022/06/25 06:34:52;;;;;;;3.45;3.15;;;;;;;25.03;51.89;101195.69;1736493;81;21015;-49
2022/06/25 06:37:19;;;;;;;3.75;3.42;;;;;;;25.11;51.44;101193.77;1700997;84;21046;-49
2022/06/25 06:39:46;;;;;;;3.62;2.70;;;;;;;25.11;51.44;101193.77;1698784;84;21474;-50
2022/06/25 06:42:13;;;;;;;3.95;3.40;;;;;;;25.22;51.54;101199.15;1696643;84;21498;-51
2022/06/25 06:44:41;;;;;;;3.10;2.90;;;;;;;25.22;51.54;101199.15;1697896;84;20986;-52
2022/06/25 06:47:08;;;;;;;3.47;3.17;;;;;;;25.34;51.43;101192.89;1696568;84;21038;-51
2022/06/25 06:49:35;;;;;;;3.30;3.00;;;;;;;25.44;51.01;101191.25;1698434;84;21034;-49
2022/06/25 06:52:03;;;;;;;3.20;3.00;;;;;;;25.44;51.01;101191.25;1700414;84;21042;-52
2022/06/25 06:54:30;;;;;;;4.17;3.17;;;;;;;25.52;51.03;101196.83;1737352;82;21006;-52
2022/06/25 06:56:57;;;;;;;3.27;2.98;;;;;;;25.57;50.86;101193.34;1701011;83;21019;-48
2022/06/25 06:59:24;;;;;;;4.25;3.00;;;;;;;25.65;50.89;101206.07;1700445;84;20990;-51
2022/06/25 07:01:51;;;;;;;3.75;3.02;;;;;;;25.77;50.66;101211.30;1698223;84;21078;-51
2022/06/25 07:04:18;;;;;;;3.00;2.70;;;;;;;25.77;50.66;101211.30;1698596;84;21054;-51
2022/06/25 07:06:45;;;;;;;4.30;3.50;;;;;;;25.89;50.67;101211.30;1698120;84;21061;-50
2022/06/25 07:09:12;;;;;;;4.17;3.08;;;;;;;25.97;49.95;101212.40;1698402;84;21495;-51
2022/06/25 07:11:40;;;;;;;4.35;3.02;;;;;;;26.04;50.04;101213.63;1699138;84;21553;-51
2022/06/25 07:14:07;;;;;;;3.70;2.98;;;;;;;26.11;49.87;101214.85;1736688;81;21004;-51
2022/06/25 07:16:34;;;;;;;3.45;3.15;;;;;;;26.19;49.36;101216.94;1697115;84;21506;-51
2022/06/25 07:19:04;;;;;;;3.42;2.62;;;;;;;26.26;49.49;101218.12;1695479;84;21006;-51
2022/06/25 07:21:32;;;;;;;3.22;2.77;;;;;;;26.32;49.42;101220.30;1689281;84;21027;-50
2022/06/25 07:24:00;;;;;;;3.35;2.85;;;;;;;26.38;49.30;101219.33;1701040;84;21014;-51
2022/06/25 07:26:27;;;;;;;3.22;2.90;;;;;;;26.43;49.26;101226.98;1734610;81;21014;-50
2022/06/25 07:28:54;;;;;;;4.60;2.70;;;;;;;26.47;49.50;101231.09;1733561;81;21027;-50
2022/06/25 07:31:21;;;;;;;3.20;2.90;;;;;;;26.53;49.49;101229.27;1733522;81;21019;-53
2022/06/25 07:33:49;;;;;;;3.15;2.95;;;;;;;26.65;49.17;101229.60;1733858;81;20991;-52
2022/06/25 07:36:17;;;;;;;3.80;3.35;;;;;;;26.75;48.86;101223.91;1733615;81;21650;-53
2022/06/25 07:38:44;;;;;;;5.33;3.70;;;;;;;26.80;48.58;101227.06;1735365;81;21055;-51
2022/06/25 07:41:11;;;;;;;3.20;3.00;;;;;;;26.84;48.77;101227.65;1701269;84;21030;-52
2022/06/25 07:43:38;;;;;;;4.85;3.22;;;;;;;26.85;48.70;101234.23;1698768;84;21085;-50
2022/06/25 07:46:04;;;;;;;3.22;2.98;;;;;;;26.89;48.50;101232.14;1699182;84;21040;-51
2022/06/25 07:48:32;;;;;;;3.45;3.17;;;;;;;26.90;48.31;101229.81;1699014;84;20999;-50
2022/06/25 07:53:45;;;;;;;3.65;3.22;;;;;;;26.88;48.44;101239.30;1698453;84;21034;-50
2022/06/25 07:56:12;;;;;;;4.10;3.80;;;;;;;26.89;48.96;101245.02;1698050;83;21006;-51
2022/06/25 07:58:39;;;;;;;5.37;3.62;;;;;;;26.90;48.94;101245.36;1697886;84;21097;-51
2022/06/25 08:01:06;;;;;;;4.35;3.55;;;;;;;26.91;48.87;101251.08;1698513;84;21061;-49
2022/06/25 08:03:33;;;;;;;3.87;3.52;;;;;;;26.92;49.21;101250.09;1699282;84;21030;-51
2022/06/25 08:06:01;;;;;;;4.70;3.85;;;;;;;26.97;49.54;101249.23;1736532;81;21027;-54
2022/06/25 08:08:28;;;;;;;6.53;4.15;;;;;;;27.04;49.44;101253.08;1735418;81;20991;-53
2022/06/25 08:10:55;;;;;;;4.22;3.83;;;;;;;27.10;49.14;101255.24;1732951;82;21019;-51
2022/06/25 08:13:22;;;;;;;5.00;4.47;;;;;;;27.16;49.17;101250.73;1733988;81;21054;-50
2022/06/25 08:15:50;;;;;;;4.22;3.90;;;;;;;27.21;48.98;101252.54;1729983;81;21051;-51
2022/06/25 08:18:18;;;;;;;4.83;4.42;;;;;;;27.23;48.41;101255.08;1733656;81;21015;-53
2022/06/25 08:20:45;;;;;;;4.60;4.20;;;;;;;27.19;48.40;101250.48;1734521;81;20999;-53
2022/06/25 08:23:12;;;;;;;4.72;4.33;;;;;;;27.18;48.54;101256.79;1699305;84;21061;-52
2022/06/25 08:25:39;;;;;;;4.75;4.15;;;;;;;27.17;48.76;101251.10;1698779;84;21542;-51
2022/06/25 08:28:06;;;;;;;5.35;4.62;;;;;;;27.16;48.92;101253.40;1736695;81;21062;-49
2022/06/25 08:30:33;;;;;;;5.17;4.67;;;;;;;27.14;49.38;101256.69;1698469;84;21514;-53
2022/06/25 08:33:00;;;;;;;5.80;4.50;;;;;;;27.12;49.49;101266.65;1698583;84;21097;-55
2022/06/25 08:35:28;;;;;;;5.67;4.60;;;;;;;27.10;49.67;101267.27;1698123;84;21014;-50
2022/06/25 08:37:56;;;;;;;5.25;4.85;;;;;;;27.07;49.44;101264.86;1697886;84;21026;-50
2022/06/25 08:40:23;;;;;;;5.47;4.80;;;;;;;27.08;49.57;101269.22;1698760;84;21022;-52
2022/06/25 08:42:50;;;;;;;5.67;4.95;;;;;;;27.07;49.39;101268.88;1700137;82;21526;-50
2022/06/25 08:45:17;;;;;;;9.45;5.83;;;;;;;27.08;49.38;101274.55;1740342;81;21045;-49
2022/06/25 08:47:49;;;;;;;5.58;5.00;;;;;;;27.09;49.50;101273.59;1734237;82;21027;-52
2022/06/25 08:50:18;;;;;;;5.62;5.12;;;;;;;27.11;49.82;101271.65;1645958;87;21062;-50
2022/06/25 08:52:53;;;;;;;5.65;4.30;;;;;;;27.17;50.05;101273.81;1631513;87;21085;-52
2022/06/25 08:55:36;;;;;;;6.30;5.30;;;;;;;27.24;50.03;101267.48;1640458;87;21046;-53
2022/06/25 08:58:03;;;;;;;5.92;5.17;;;;;;;27.31;49.53;101265.49;1643244;86;21113;-52
2022/06/25 09:00:32;;;;;;;5.60;5.10;;;;;;;27.38;49.66;101261.86;1637233;87;21593;-52
2022/06/25 09:02:59;;;;;;;5.50;5.00;;;;;;;27.45;49.23;101263.53;1638850;87;21103;-51
2022/06/25 09:05:33;;;;;;;5.65;5.15;;;;;;;27.52;49.25;101271.37;1638440;87;21062;-49
2022/06/25 09:08:05;;;;;;;6.40;5.90;;;;;;;27.58;49.24;101258.83;1613304;87;21118;-52
2022/06/25 09:10:33;;;;;;;7.75;5.87;;;;;;;27.65;48.95;101268.04;1613399;87;21058;-52
2022/06/25 09:13:03;;;;;;;6.42;5.75;;;;;;;27.70;48.66;101269.84;1611408;87;21095;-49
2022/06/25 09:15:33;;;;;;;6.97;5.80;;;;;;;27.73;48.66;101273.10;1602484;87;21011;-52
2022/06/25 09:18:10;;;;;;;7.00;6.30;;;;;;;27.75;48.89;101276.97;1610171;88;21046;-50
2022/06/25 09:20:58;;;;;;;6.95;5.35;;;;;;;27.80;48.25;101281.45;1608955;87;21051;-51
2022/06/25 09:23:30;;;;;;;6.47;5.92;;;;;;;27.87;48.49;101281.27;1610994;87;21066;-50
2022/06/25 09:26:07;;;;;;;10.50;6.12;;;;;;;27.95;48.41;101276.11;1610832;87;21047;-52
2022/06/25 09:28:40;;;;;;;5.87;5.37;;;;;;;28.04;48.48;101270.01;1606688;87;21106;-52
2022/06/25 09:31:07;;;;;;;6.03;5.53;;;;;;;28.14;48.00;101274.92;1596023;88;21087;-49
2022/06/25 09:33:35;;;;;;;6.20;5.37;;;;;;;28.22;47.51;101275.58;1597608;88;21070;-51
2022/06/25 09:36:03;;;;;;;8.58;5.87;;;;;;;28.23;47.68;101275.47;1598815;88;21543;-50
2022/06/25 09:38:30;;;;;;;5.65;5.15;;;;;;;28.25;47.18;101268.16;1598439;88;21096;-51
2022/06/25 09:40:59;;;;;;;8.23;5.72;;;;;;;28.26;47.29;101275.19;1574415;88;21244;-51
2022/06/25 09:43:29;;;;;;;7.20;4.85;;;;;;;28.29;47.05;101272.25;1597426;88;21127;-50
2022/06/25 09:45:59;;;;;;;6.00;5.15;;;;;;;28.31;47.14;101270.29;1599474;87;21062;-49
2022/06/25 09:48:28;;;;;;;6.33;5.00;;;;;;;28.35;46.82;101273.05;1644224;84;21097;-49
2022/06/25 09:51:14;;;;;;;5.72;5.20;;;;;;;28.40;47.08;101270.80;1662622;84;21150;-51
2022/06/25 09:53:53;;;;;;;5.05;4.60;;;;;;;28.44;46.83;101273.56;1618540;87;21114;-54
2022/06/25 09:56:24;;;;;;;5.30;4.75;;;;;;;28.48;46.25;101276.33;1612873;86;21054;-51
2022/06/25 09:58:51;;;;;;;8.03;4.80;;;;;;;28.51;45.99;101273.87;1548631;90;21118;-52
2022/06/25 10:01:20;;;;;;;5.25;4.78;;;;;;;28.51;45.99;101277.41;1519944;92;21155;-53
2022/06/25 10:03:47;;;;;;;5.33;4.37;;;;;;;28.51;45.55;101278.75;1501795;95;21104;-52
2022/06/25 10:06:15;;;;;;;6.58;4.62;;;;;;;28.49;46.00;101276.70;1521993;92;21128;-51
2022/06/25 10:08:56;;;;;;;4.65;4.22;;;;;;;28.50;45.49;101286.41;1517540;93;21079;-50
2022/06/25 10:11:28;;;;;;;5.05;4.47;;;;;;;28.50;45.91;101283.73;1497589;93;21079;-51
2022/06/25 10:13:55;;;;;;;5.72;4.30;;;;;;;28.50;45.32;101278.38;1512451;93;21596;-49
2022/06/25 10:16:25;;;;;;;4.37;3.98;;;;;;;28.51;45.56;101288.12;1509185;94;21212;-50
2022/06/25 10:18:52;;;;;;;5.22;4.10;;;;;;;28.53;45.56;101286.16;1510500;93;21111;-50
2022/06/25 10:21:20;;;;;;;4.85;4.40;;;;;;;28.56;45.80;101285.07;1509780;93;21070;-51
2022/06/25 10:23:52;;;;;;;6.55;4.50;;;;;;;28.59;45.68;101284.30;1510151;93;21118;-52
2022/06/25 10:26:20;;;;;;;4.37;4.05;;;;;;;28.60;44.93;101279.31;1489315;95;21612;-51
2022/06/25 10:28:47;;;;;;;9.15;4.58;;;;;;;28.61;44.93;101275.64;1489966;95;21102;-53
2022/06/25 10:31:16;;;;;;;5.33;4.05;;;;;;;28.61;45.18;101281.00;1521809;92;21073;-52
2022/06/25 10:33:59;;;;;;;8.08;4.17;;;;;;;28.62;45.00;101284.53;1524637;93;21109;-53
2022/06/25 10:36:49;;;;;;;5.03;3.80;;;;;;;28.62;44.99;101285.38;1546784;90;21072;-50
2022/06/25 10:39:33;;;;;;;4.47;3.92;;;;;;;28.64;45.01;101284.75;1544297;92;21060;-49
2022/06/25 10:45:16;;;;;;;4.33;3.70;;;;;;;28.70;44.85;101290.90;1544400;92;21107;-50
2022/06/25 10:47:54;;;;;;;3.65;3.35;;;;;;;28.75;44.54;101291.80;1547409;91;21102;-52
2022/06/25 10:50:26;;;;;;;5.50;3.50;;;;;;;28.76;44.14;101290.35;1511160;94;21115;-51
2022/06/25 10:53:10;;;;;;;4.03;3.22;;;;;;;28.78;43.77;101295.56;1511398;94;21106;-51
2022/06/25 10:55:51;;;;;;;3.42;3.12;;;;;;;28.78;43.41;101291.06;1511961;94;21074;-49
2022/06/25 10:58:25;;;;;;;3.58;3.12;;;;;;;28.79;43.99;101287.38;1514493;93;21139;-53
2022/06/25 11:01:03;;;;;;;3.30;3.00;;;;;;;28.82;43.66;101284.45;1533559;93;21062;-52
2022/06/25 11:03:36;;;;;;;6.30;3.45;;;;;;;28.90;43.49;101283.27;1537551;93;21151;-49
2022/06/25 11:06:30;;;;;;;3.37;3.08;;;;;;;28.94;42.90;101286.02;1532781;93;21137;-52
2022/06/25 11:09:13;;;;;;;3.77;3.05;;;;;;;28.98;42.48;101281.22;1501432;94;21170;-49
2022/06/25 11:11:43;;;;;;;3.00;2.70;;;;;;;28.97;42.37;101282.22;1484233;96;21131;-49
2022/06/25 11:14:22;;;;;;;3.85;2.95;;;;;;;28.97;42.41;101282.22;1484540;96;21631;-49
2022/06/25 11:16:49;;;;;;;3.30;3.00;;;;;;;28.96;42.38;101277.83;1453095;98;21142;-52
2022/06/25 11:19:17;;;;;;;3.33;3.00;;;;;;;28.98;41.71;101281.22;1491589;95;21104;-51
2022/06/25 11:21:45;;;;;;;2.85;2.52;;;;;;;29.00;41.37;101279.77;1499334;95;21593;-51
2022/06/25 11:24:24;;;;;;;3.10;2.58;;;;;;;28.99;41.30;101284.27;1502445;95;21137;-48
2022/06/25 11:32:11;;;;;;;4.10;2.40;;;;;;;28.85;41.35;101282.81;1473411;97;21565;-53
2022/06/25 11:34:38;;;;;;;3.40;3.10;;;;;;;28.82;41.14;101288.46;1473467;97;21161;-50
2022/06/25 11:37:09;;;;;;;2.80;2.60;;;;;;;28.79;40.84;101291.91;1496829;94;21590;-55
2022/06/25 11:39:38;;;;;;;6.55;2.42;;;;;;;28.74;41.46;101288.30;1469240;96;21113;-51
2022/06/25 11:42:10;;;;;;;3.35;2.58;;;;;;;28.70;41.46;101285.55;1457674;97;21180;-50
2022/06/25 11:44:47;;;;;;;;;;;;;;;28.66;41.69;101286.80;1436461;99;21085;-55
2022/06/25 11:47:26;;;;;;;2.87;2.40;;;;;;;28.65;41.65;101290.45;1407869;100;20208;-51
2022/06/25 11:49:53;;;;;;;2.80;2.58;;;;;;;28.65;41.05;101293.12;1450822;97;21591;-51
2022/06/25 11:52:23;;;;;;;2.98;2.70;;;;;;;28.66;40.01;101294.84;1450730;97;21127;-52
2022/06/25 11:54:51;;;;;;;4.28;2.50;;;;;;;28.67;39.93;101293.84;1450171;98;21524;-51
2022/06/25 11:57:24;;;;;;;4.00;2.50;;;;;;;28.68;40.43;101295.55;1443584;97;21167;-52